createdAt,value
2019-03-06T00:00:36.724Z,100242.58
2019-03-06T00:03:07.255Z,100237.13
2019-03-06T00:05:38.057Z,100240.06
2019-03-06T00:08:09.683Z,100245.60
2019-03-06T00:10:41.108Z,100244.32
2019-03-06T00:13:11.539Z,100243.90
2019-03-06T00:15:42.380Z,100249.89
2019-03-06T00:18:12.714Z,100243.91
2019-03-06T00:20:44.159Z,100237.05
2019-03-06T00:23:14.312Z,100245.52
2019-03-06T00:25:45.638Z,100237.83
2019-03-06T00:28:18.017Z,100234.56
2019-03-06T00:30:49.486Z,100230.89
2019-03-06T00:33:21.905Z,100235.66
2019-03-06T00:35:53.643Z,100237.47
2019-03-06T00:38:24.383Z,100238.70
2019-03-06T00:41:04.187Z,100238.38
2019-03-06T00:43:34.736Z,100238.25
2019-03-06T00:46:06.157Z,100239.17
2019-03-06T00:48:37.539Z,100234.91
2019-03-06T00:51:09.057Z,100240.12
2019-03-06T00:53:39.717Z,100236.19
2019-03-06T00:56:10.924Z,100237.47
2019-03-06T00:58:42.829Z,100240.36
2019-03-06T01:01:14.592Z,100237.13
2019-03-06T01:03:46.914Z,100236.55
2019-03-06T01:06:17.807Z,100242.81
2019-03-06T01:08:48.755Z,100244.88
2019-03-06T01:11:21.030Z,100248.41
2019-03-06T01:13:52.603Z,100247.75
2019-03-06T01:16:24.749Z,100248.13
2019-03-06T01:18:56.204Z,100247.27
2019-03-06T01:21:26.538Z,100250.86
2019-03-06T01:23:57.167Z,100250.72
2019-03-06T01:26:27.970Z,100256.63
2019-03-06T01:28:58.728Z,100253.23
2019-03-06T01:31:30.785Z,100256.05
2019-03-06T01:34:14.139Z,100255.46
2019-03-06T01:37:11.996Z,100256.83
2019-03-06T01:39:54.095Z,100253.97
2019-03-06T01:42:36.803Z,100246.58
2019-03-06T01:45:10.771Z,100242.62
2019-03-06T01:47:42.472Z,100242.55
2019-03-06T01:50:14.436Z,100243.91
2019-03-06T01:52:47.122Z,100238.09
2019-03-06T01:55:17.571Z,100232.84
2019-03-06T01:57:49.929Z,100234.91
2019-03-06T02:00:21.614Z,100230.61
2019-03-06T02:02:52.140Z,100228.27
2019-03-06T02:05:22.675Z,100235.95
2019-03-06T02:07:53.394Z,100230.74
2019-03-06T02:10:23.924Z,100233.16
2019-03-06T02:12:54.694Z,100229.08
2019-03-06T02:15:25.109Z,100229.58
2019-03-06T02:17:57.292Z,100232.47
2019-03-06T02:20:28.472Z,100230.66
2019-03-06T02:22:58.755Z,100226.85
2019-03-06T02:25:31.729Z,100223.26
2019-03-06T02:28:04.412Z,100220.25
2019-03-06T02:30:37.081Z,100213.38
2019-03-06T02:33:08.326Z,100214.33
2019-03-06T02:35:39.037Z,100217.75
2019-03-06T02:38:10.067Z,100217.30
2019-03-06T02:40:42.521Z,100221.64
2019-03-06T02:43:14.593Z,100221.02
2019-03-06T02:45:44.998Z,100218.62
2019-03-06T02:48:18.513Z,100212.09
2019-03-06T02:50:50.672Z,100217.41
2019-03-06T02:53:21.209Z,100218.91
2019-03-06T02:55:53.375Z,100216.76
2019-03-06T02:58:30.370Z,100215.39
2019-03-06T03:01:26.072Z,100207.38
2019-03-06T03:04:18.608Z,100203.25
2019-03-06T03:06:56.088Z,100201.06
2019-03-06T03:09:26.417Z,100196.26
2019-03-06T03:11:57.270Z,100199.70
2019-03-06T03:14:27.632Z,100199.87
2019-03-06T03:16:58.083Z,100199.19
2019-03-06T03:19:31.131Z,100198.73
2019-03-06T03:22:03.424Z,100191.05
2019-03-06T03:24:33.890Z,100184.01
2019-03-06T03:27:06.358Z,100175.77
2019-03-06T03:29:36.824Z,100168.80
2019-03-06T03:32:07.459Z,100166.05
2019-03-06T03:34:39.330Z,100165.83
2019-03-06T03:37:09.860Z,100167.70
2019-03-06T03:39:41.230Z,100163.41
2019-03-06T03:42:12.630Z,100156.86
2019-03-06T03:44:42.998Z,100159.47
2019-03-06T03:47:14.751Z,100157.73
2019-03-06T03:49:46.940Z,100150.73
2019-03-06T03:52:17.255Z,100138.39
2019-03-06T03:54:50.512Z,100128.27
2019-03-06T03:57:23.024Z,100131.26
2019-03-06T03:59:55.707Z,100140.34
2019-03-06T04:02:27.065Z,100141.48
2019-03-06T04:04:57.478Z,100144.45
2019-03-06T04:07:29.394Z,100151.34
2019-03-06T04:09:59.766Z,100146.02
2019-03-06T04:12:30.009Z,100149.55
2019-03-06T04:15:00.792Z,100146.79
2019-03-06T04:17:31.166Z,100150.47
2019-03-06T04:20:02.741Z,100153.45
2019-03-06T04:22:32.953Z,100142.98
2019-03-06T04:25:05.541Z,100131.78
2019-03-06T04:27:38.940Z,100122.19
2019-03-06T04:30:11.106Z,100120.92
2019-03-06T04:32:41.437Z,100120.20
2019-03-06T04:35:12.220Z,100120.05
2019-03-06T04:37:42.612Z,100115.37
2019-03-06T04:40:13.249Z,100121.06
2019-03-06T04:42:43.876Z,100108.60
2019-03-06T04:45:14.251Z,100116.53
2019-03-06T04:47:47.399Z,100117.77
2019-03-06T04:50:18.073Z,100116.13
2019-03-06T04:52:48.260Z,100113.97
2019-03-06T04:55:19.999Z,100112.98
2019-03-06T04:57:53.183Z,100096.20
2019-03-06T05:00:24.774Z,100098.47
2019-03-06T05:02:55.524Z,100099.55
2019-03-06T05:05:26.015Z,100099.39
2019-03-06T05:07:57.350Z,100096.00
2019-03-06T05:10:28.236Z,100095.92
2019-03-06T05:13:01.735Z,100102.34
2019-03-06T05:15:32.988Z,100093.58
2019-03-06T05:18:29.125Z,100098.33
2019-03-06T05:20:59.945Z,100095.88
2019-03-06T05:23:30.421Z,100091.04
2019-03-06T05:26:01.817Z,100094.41
2019-03-06T05:28:32.221Z,100091.55
2019-03-06T05:31:04.033Z,100091.90
2019-03-06T05:33:34.290Z,100088.42
2019-03-06T05:36:57.285Z,100086.11
2019-03-06T05:39:29.351Z,100085.33
2019-03-06T05:42:01.243Z,100089.38
2019-03-06T05:44:32.040Z,100088.90
2019-03-06T05:47:04.212Z,100085.88
2019-03-06T05:49:36.415Z,100089.67
2019-03-06T05:52:06.526Z,100083.50
2019-03-06T05:54:36.943Z,100086.42
2019-03-06T05:57:09.117Z,100083.86
2019-03-06T05:59:42.359Z,100083.38
2019-03-06T06:02:12.835Z,100066.42
2019-03-06T06:04:43.916Z,100063.03
2019-03-06T06:07:14.422Z,100062.78
2019-03-06T06:09:45.361Z,100054.87
2019-03-06T06:12:15.663Z,100051.42
2019-03-06T06:14:47.755Z,100039.99
2019-03-06T06:17:19.109Z,100039.97
2019-03-06T06:19:49.868Z,100038.17
2019-03-06T06:22:33.889Z,100038.34
2019-03-06T06:25:05.721Z,100038.41
2019-03-06T06:27:36.132Z,100042.66
2019-03-06T06:30:07.565Z,100047.80
2019-03-06T06:32:37.891Z,100042.14
2019-03-06T06:35:08.752Z,100047.69
2019-03-06T06:37:40.290Z,100047.55
2019-03-06T06:40:10.597Z,100052.34
2019-03-06T06:42:41.020Z,100037.64
2019-03-06T06:45:11.987Z,100039.67
2019-03-06T06:48:07.627Z,100039.44
2019-03-06T06:50:41.266Z,100037.05
2019-03-06T06:53:51.717Z,100028.09
2019-03-06T06:57:26.418Z,100023.80
2019-03-06T07:01:07.880Z,100016.91
2019-03-06T07:04:52.076Z,100006.13
2019-03-06T07:07:32.844Z,100001.61
2019-03-06T07:10:22.203Z,99995.95
2019-03-06T07:13:13.001Z,99985.64
2019-03-06T07:16:02.774Z,99985.59
2019-03-06T07:18:40.268Z,99980.12
2019-03-06T07:24:19.604Z,99973.69
2019-03-06T07:27:22.168Z,99979.35
2019-03-06T07:30:12.273Z,99971.76
2019-03-06T07:33:11.638Z,99964.31
2019-03-06T07:36:19.465Z,99970.48
2019-03-06T07:38:56.403Z,99963.89
2019-03-06T07:41:53.138Z,99954.23
2019-03-06T07:44:43.214Z,99940.92
2019-03-06T07:47:25.209Z,99936.39
2019-03-06T07:50:35.137Z,99931.18
2019-03-06T07:54:03.593Z,99921.58
2019-03-06T07:56:39.071Z,99923.84
2019-03-06T07:59:10.959Z,99925.16
2019-03-06T08:01:50.537Z,99921.73
2019-03-06T08:04:20.868Z,99924.27
2019-03-06T08:06:56.013Z,99920.41
2019-03-06T08:09:26.643Z,99915.11
2019-03-06T08:12:16.217Z,99914.04
2019-03-06T08:15:11.978Z,99917.19
2019-03-06T08:18:05.071Z,99917.30
2019-03-06T08:24:04.563Z,99927.74
2019-03-06T08:26:34.996Z,99920.52
2019-03-06T08:29:07.168Z,99920.12
2019-03-06T08:31:43.091Z,99913.30
2019-03-06T08:34:13.511Z,99916.34
2019-03-06T08:36:43.888Z,99921.80
2019-03-06T08:39:24.344Z,99919.70
2019-03-06T08:41:54.875Z,99919.71
2019-03-06T08:44:25.516Z,99928.93
2019-03-06T08:47:18.147Z,99920.78
2019-03-06T08:50:03.722Z,99914.56
2019-03-06T08:53:12.736Z,99911.50
2019-03-06T08:56:02.957Z,99905.79
2019-03-06T08:58:43.683Z,99895.81
2019-03-06T09:02:01.091Z,99896.88
2019-03-06T09:05:00.068Z,99893.16
2019-03-06T09:07:49.123Z,99883.72
2019-03-06T09:10:37.052Z,99881.51
2019-03-06T09:13:46.074Z,99881.16
2019-03-06T09:16:39.772Z,99877.11
2019-03-06T09:19:32.361Z,99870.53
2019-03-06T09:22:10.953Z,99869.80
2019-03-06T09:25:16.316Z,99863.59
2019-03-06T09:27:53.599Z,99855.75
2019-03-06T09:30:45.329Z,99855.53
2019-03-06T09:33:50.714Z,99858.63
2019-03-06T09:36:40.528Z,99858.30
2019-03-06T09:39:46.960Z,99861.49
2019-03-06T09:42:35.483Z,99838.83
2019-03-06T09:45:27.425Z,99841.45
2019-03-06T09:48:22.113Z,99834.56
2019-03-06T09:51:05.537Z,99828.48
2019-03-06T09:53:47.226Z,99819.08
2019-03-06T09:56:27.801Z,99813.23
2019-03-06T09:59:34.751Z,99801.66
2019-03-06T10:02:19.715Z,99794.02
2019-03-06T10:05:04.267Z,99789.92
2019-03-06T10:07:49.556Z,99789.63
2019-03-06T10:10:57.881Z,99782.95
2019-03-06T10:13:45.875Z,99772.97
2019-03-06T10:16:35.940Z,99775.09
2019-03-06T10:19:16.416Z,99769.56
2019-03-06T10:21:48.778Z,99768.12
2019-03-06T10:24:19.212Z,99756.99
2019-03-06T10:26:49.638Z,99766.16
2019-03-06T10:29:20.604Z,99750.50
2019-03-06T10:31:50.908Z,99741.80
2019-03-06T10:34:21.700Z,99744.77
2019-03-06T10:36:52.254Z,99739.83
2019-03-06T10:39:23.056Z,99733.77
2019-03-06T10:41:53.328Z,99736.66
2019-03-06T10:44:29.589Z,99733.39
2019-03-06T10:46:56.366Z,99743.36
2019-03-06T10:49:27.124Z,99738.34
2019-03-06T10:51:59.674Z,99747.56
2019-03-06T10:54:31.432Z,99738.59
2019-03-06T10:57:01.782Z,99739.83
2019-03-06T10:59:32.647Z,99740.81
2019-03-06T11:02:03.314Z,99730.80
2019-03-06T11:04:47.189Z,99719.90
2019-03-06T11:07:19.490Z,99714.34
2019-03-06T11:09:52.169Z,99715.01
2019-03-06T11:12:22.780Z,99721.33
2019-03-06T11:14:53.649Z,99710.30
2019-03-06T11:17:24.149Z,99707.20
2019-03-06T11:19:56.641Z,99694.08
2019-03-06T11:22:27.186Z,99691.56
2019-03-06T11:24:57.688Z,99691.53
2019-03-06T11:27:29.486Z,99678.50
2019-03-06T11:30:01.123Z,99664.89
2019-03-06T11:32:34.816Z,99665.19
2019-03-06T11:35:07.157Z,99657.20
2019-03-06T11:37:39.463Z,99655.61
2019-03-06T11:40:12.146Z,99653.56
2019-03-06T11:42:42.639Z,99648.58
2019-03-06T11:45:15.553Z,99628.91
2019-03-06T11:47:47.181Z,99631.89
2019-03-06T11:50:19.497Z,99622.63
2019-03-06T11:52:50.446Z,99624.30
2019-03-06T11:55:22.712Z,99625.16
2019-03-06T11:57:53.449Z,99603.13
2019-03-06T12:00:39.969Z,99611.03
2019-03-06T12:03:12.937Z,99601.80
2019-03-06T12:05:44.810Z,99596.08
2019-03-06T12:08:16.088Z,99582.91
2019-03-06T12:10:50.984Z,99575.94
2019-03-06T12:13:21.902Z,99571.52
2019-03-06T12:15:52.311Z,99563.62
2019-03-06T12:18:25.519Z,99565.44
2019-03-06T12:20:58.030Z,99561.51
2019-03-06T12:23:30.671Z,99554.87
2019-03-06T12:26:01.146Z,99542.73
2019-03-06T12:28:32.389Z,99546.70
2019-03-06T12:31:07.362Z,99546.69
2019-03-06T12:33:39.392Z,99535.91
2019-03-06T12:36:11.671Z,99526.39
2019-03-06T12:38:43.190Z,99518.34
2019-03-06T12:41:13.654Z,99509.31
2019-03-06T12:43:45.211Z,99505.48
2019-03-06T12:46:24.399Z,99499.42
2019-03-06T12:49:00.964Z,99479.98
2019-03-06T12:51:35.635Z,99476.55
2019-03-06T12:54:08.136Z,99470.17
2019-03-06T12:56:38.577Z,99475.74
2019-03-06T12:59:10.210Z,99465.16
2019-03-06T13:01:42.187Z,99456.52
2019-03-06T13:04:13.727Z,99458.54
2019-03-06T13:06:44.261Z,99451.11
2019-03-06T13:09:18.205Z,99442.38
2019-03-06T13:11:48.854Z,99444.37
2019-03-06T13:14:19.410Z,99444.25
2019-03-06T13:16:50.325Z,99435.39
2019-03-06T13:19:22.472Z,99428.64
2019-03-06T13:21:53.266Z,99427.22
2019-03-06T13:24:23.825Z,99430.30
2019-03-06T13:26:54.359Z,99415.28
2019-03-06T13:29:25.973Z,99407.84
2019-03-06T13:31:56.581Z,99412.22
2019-03-06T13:34:50.919Z,99402.52
2019-03-06T13:37:41.417Z,99404.42
2019-03-06T13:40:18.435Z,99394.02
2019-03-06T13:42:44.449Z,99381.61
2019-03-06T13:45:15.082Z,99371.44
2019-03-06T13:47:47.781Z,99356.62
2019-03-06T13:50:19.065Z,99364.45
2019-03-06T13:52:51.267Z,99350.84
2019-03-06T13:55:21.699Z,99351.42
2019-03-06T13:57:53.062Z,99374.22
2019-03-06T14:00:23.771Z,99351.19
2019-03-06T14:02:54.322Z,99343.97
2019-03-06T14:05:26.595Z,99331.03
2019-03-06T14:07:57.341Z,99325.48
2019-03-06T14:10:27.889Z,99305.70
2019-03-06T14:12:58.746Z,99312.09
2019-03-06T14:15:31.387Z,99308.31
2019-03-06T14:18:02.158Z,99309.27
2019-03-06T14:20:32.463Z,99297.92
2019-03-06T14:23:03.404Z,99309.76
2019-03-06T14:25:34.892Z,99302.53
2019-03-06T14:28:05.689Z,99303.23
2019-03-06T14:30:38.993Z,99306.31
2019-03-06T14:33:10.073Z,99292.82
2019-03-06T14:35:40.974Z,99293.67
2019-03-06T14:38:11.506Z,99284.19
2019-03-06T14:40:43.442Z,99276.26
2019-03-06T14:43:13.703Z,99270.74
2019-03-06T14:45:45.232Z,99265.64
2019-03-06T14:48:16.102Z,99266.12
2019-03-06T14:50:49.802Z,99264.13
2019-03-06T14:53:20.890Z,99254.13
2019-03-06T14:55:51.341Z,99241.80
2019-03-06T14:58:21.488Z,99250.34
2019-03-06T15:00:52.082Z,99236.16
2019-03-06T15:03:22.452Z,99245.27
2019-03-06T15:05:53.664Z,99234.16
2019-03-06T15:08:26.800Z,99237.36
2019-03-06T15:10:59.286Z,99229.67
2019-03-06T15:13:29.616Z,99232.50
2019-03-06T15:16:01.075Z,99222.12
2019-03-06T15:18:33.649Z,99210.80
2019-03-06T15:21:05.059Z,99206.53
2019-03-06T15:23:36.547Z,99209.50
2019-03-06T15:26:09.997Z,99205.48
2019-03-06T15:28:41.309Z,99206.58
2019-03-06T15:31:15.047Z,99198.78
2019-03-06T15:33:45.653Z,99200.28
2019-03-06T15:36:16.286Z,99191.95
2019-03-06T15:38:47.326Z,99194.32
2019-03-06T15:41:18.413Z,99198.44
2019-03-06T15:43:51.493Z,99195.72
2019-03-06T15:46:22.060Z,99185.00
2019-03-06T15:48:52.441Z,99189.83
2019-03-06T15:51:22.944Z,99187.36
2019-03-06T15:53:54.513Z,99186.61
2019-03-06T15:56:26.986Z,99181.09
2019-03-06T15:58:57.990Z,99177.88
2019-03-06T16:01:28.576Z,99175.18
2019-03-06T16:04:00.949Z,99174.11
2019-03-06T16:06:33.154Z,99166.44
2019-03-06T16:09:06.213Z,99168.66
2019-03-06T16:11:37.347Z,99161.59
2019-03-06T16:14:10.869Z,99162.66
2019-03-06T16:16:41.404Z,99153.20
2019-03-06T16:19:12.291Z,99141.97
2019-03-06T16:21:42.872Z,99134.77
2019-03-06T16:24:13.410Z,99137.02
2019-03-06T16:26:45.186Z,99122.73
2019-03-06T16:29:18.368Z,99117.67
2019-03-06T16:31:48.951Z,99120.26
2019-03-06T16:34:19.627Z,99113.41
2019-03-06T16:36:50.269Z,99118.60
2019-03-06T16:39:20.947Z,99122.48
2019-03-06T16:41:52.361Z,99118.35
2019-03-06T16:44:22.887Z,99117.42
2019-03-06T16:46:53.729Z,99120.52
2019-03-06T16:49:25.292Z,99102.44
2019-03-06T16:51:57.868Z,99109.19
2019-03-06T16:54:29.444Z,99085.23
2019-03-06T16:57:00.160Z,99085.83
2019-03-06T16:59:31.746Z,99080.64
2019-03-06T17:02:02.419Z,99079.34
2019-03-06T17:04:33.740Z,99077.44
2019-03-06T17:07:04.711Z,99083.69
2019-03-06T17:09:36.911Z,99090.20
2019-03-06T17:12:10.112Z,99101.64
2019-03-06T17:14:41.669Z,99107.55
2019-03-06T17:17:12.163Z,99113.20
2019-03-06T17:19:45.166Z,99110.96
2019-03-06T17:22:16.465Z,99111.45
2019-03-06T17:24:48.027Z,99108.36
2019-03-06T17:27:19.655Z,99115.33
2019-03-06T17:29:53.060Z,99114.40
2019-03-06T17:32:23.483Z,99111.20
2019-03-06T17:34:54.051Z,99114.75
2019-03-06T17:37:24.449Z,99109.32
2019-03-06T17:39:56.006Z,99102.95
2019-03-06T17:42:26.851Z,99099.74
2019-03-06T17:44:57.285Z,99104.46
2019-03-06T17:47:28.328Z,99096.20
2019-03-06T17:49:59.225Z,99097.01
2019-03-06T17:52:31.011Z,99105.04
2019-03-06T17:55:02.471Z,99106.23
2019-03-06T17:57:33.053Z,99119.11
2019-03-06T18:00:05.954Z,99115.09
2019-03-06T18:02:37.564Z,99113.17
2019-03-06T18:05:10.654Z,99111.18
2019-03-06T18:07:43.352Z,99127.45
2019-03-06T18:10:16.327Z,99115.67
2019-03-06T18:12:49.944Z,99120.50
2019-03-06T18:15:21.338Z,99111.66
2019-03-06T18:17:55.393Z,99103.64
2019-03-06T18:20:26.450Z,99101.52
2019-03-06T18:22:59.557Z,99107.56
2019-03-06T18:25:30.592Z,99090.78
2019-03-06T18:28:01.515Z,99085.83
2019-03-06T18:30:33.187Z,99069.53
2019-03-06T18:33:04.413Z,99062.11
2019-03-06T18:35:35.468Z,99065.06
2019-03-06T18:38:09.487Z,99059.03
2019-03-06T18:40:41.276Z,99051.38
2019-03-06T18:43:14.026Z,99054.42
2019-03-06T18:45:46.154Z,99051.82
2019-03-06T18:48:16.808Z,99045.46
2019-03-06T18:50:47.443Z,99046.06
2019-03-06T18:53:19.070Z,99048.66
2019-03-06T18:55:49.723Z,99044.77
2019-03-06T18:58:21.412Z,99034.27
2019-03-06T19:00:53.124Z,99029.44
2019-03-06T19:03:28.151Z,99027.09
2019-03-06T19:05:58.993Z,99023.77
2019-03-06T19:08:31.752Z,99019.78
2019-03-06T19:11:02.919Z,99008.78
2019-03-06T19:13:33.826Z,99007.97
2019-03-06T19:16:05.769Z,99007.02
2019-03-06T19:18:37.568Z,99002.07
2019-03-06T19:21:08.369Z,99000.30
2019-03-06T19:23:40.549Z,98989.70
2019-03-06T19:26:11.206Z,98989.10
2019-03-06T19:28:41.881Z,98986.38
2019-03-06T19:31:14.564Z,98979.57
2019-03-06T19:33:45.592Z,98975.56
2019-03-06T19:36:18.560Z,98971.67
2019-03-06T19:38:52.220Z,98974.02
2019-03-06T19:41:24.655Z,98975.55
2019-03-06T19:43:55.213Z,98968.95
2019-03-06T19:46:26.107Z,98972.59
2019-03-06T19:48:58.080Z,98966.11
2019-03-06T19:51:28.581Z,98966.58
2019-03-06T19:54:00.778Z,98965.03
2019-03-06T19:56:32.033Z,98965.97
2019-03-06T19:59:04.715Z,98962.20
2019-03-06T20:01:37.197Z,98962.20
2019-03-06T20:04:07.934Z,98954.27
2019-03-06T20:06:39.063Z,98950.52
2019-03-06T20:09:27.531Z,98953.92
2019-03-06T20:12:00.903Z,98943.56
2019-03-06T20:14:32.771Z,98937.54
2019-03-06T20:17:04.060Z,98938.95
2019-03-06T20:19:36.663Z,98940.72
2019-03-06T20:22:07.878Z,98936.44
2019-03-06T20:24:38.970Z,98935.16
2019-03-06T20:27:09.158Z,98934.08
2019-03-06T20:29:39.330Z,98933.50
2019-03-06T20:32:09.556Z,98931.47
2019-03-06T20:34:40.046Z,98931.83
2019-03-06T20:37:14.358Z,98928.03
2019-03-06T20:39:45.640Z,98918.28
2019-03-06T20:42:17.566Z,98918.86
2019-03-06T20:44:51.384Z,98917.88
2019-03-06T20:47:22.420Z,98913.98
2019-03-06T20:49:53.141Z,98914.22
2019-03-06T20:52:27.463Z,98912.69
2019-03-06T20:54:59.352Z,98910.93
2019-03-06T20:57:31.026Z,98911.31
2019-03-06T21:00:02.889Z,98912.23
2019-03-06T21:02:36.400Z,98910.50
2019-03-06T21:05:07.846Z,98905.28
2019-03-06T21:07:45.399Z,98904.41
2019-03-06T21:10:14.750Z,98896.11
2019-03-06T21:12:45.906Z,98897.36
2019-03-06T21:15:18.122Z,98897.52
2019-03-06T21:17:48.735Z,98894.80
2019-03-06T21:20:19.582Z,98886.14
2019-03-06T21:22:50.715Z,98882.47
2019-03-06T21:25:21.486Z,98879.27
2019-03-06T21:27:52.130Z,98888.38
2019-03-06T21:30:35.143Z,98884.38
2019-03-06T21:33:05.625Z,98890.03
2019-03-06T21:35:36.406Z,98881.20
2019-03-06T21:38:08.031Z,98887.34
2019-03-06T21:40:38.701Z,98875.78
2019-03-06T21:43:09.264Z,98871.66
2019-03-06T21:45:39.771Z,98872.59
2019-03-06T21:48:12.962Z,98859.64
2019-03-06T21:50:44.391Z,98853.26
2019-03-06T21:53:15.151Z,98857.13
2019-03-06T21:55:48.244Z,98855.59
2019-03-06T21:58:19.697Z,98856.56
2019-03-06T22:00:51.459Z,98859.63
2019-03-06T22:03:24.813Z,98857.63
2019-03-06T22:05:55.807Z,98852.11
2019-03-06T22:08:29.084Z,98857.20
2019-03-06T22:10:59.840Z,98846.71
2019-03-06T22:13:30.733Z,98849.66
2019-03-06T22:16:01.522Z,98845.69
2019-03-06T22:18:32.475Z,98838.92
2019-03-06T22:21:04.040Z,98836.94
2019-03-06T22:23:35.652Z,98841.87
2019-03-06T22:26:07.366Z,98837.98
2019-03-06T22:28:38.311Z,98841.14
2019-03-06T22:31:08.889Z,98847.98
2019-03-06T22:33:39.575Z,98844.12
2019-03-06T22:36:10.080Z,98845.39
2019-03-06T22:38:41.614Z,98836.66
2019-03-06T22:41:12.000Z,98835.98
2019-03-06T22:43:44.294Z,98825.50
2019-03-06T22:46:14.697Z,98828.77
2019-03-06T22:48:45.347Z,98821.22
2019-03-06T22:51:15.631Z,98825.22
2019-03-06T22:53:46.280Z,98822.23
2019-03-06T22:56:17.942Z,98814.48
2019-03-06T22:58:51.118Z,98806.56
2019-03-06T23:01:32.086Z,98802.86
2019-03-06T23:04:02.753Z,98801.56
2019-03-06T23:06:34.599Z,98799.74
2019-03-06T23:09:09.904Z,98797.58
2019-03-06T23:11:40.566Z,98793.36
2019-03-06T23:14:12.784Z,98788.91
2019-03-06T23:16:43.394Z,98785.39
2019-03-06T23:19:14.216Z,98782.21
2019-03-06T23:21:45.887Z,98770.09
2019-03-06T23:24:16.311Z,98770.22
2019-03-06T23:26:48.686Z,98767.16
2019-03-06T23:29:19.317Z,98758.53
2019-03-06T23:31:50.532Z,98755.03
2019-03-06T23:34:22.036Z,98755.48
2019-03-06T23:36:53.014Z,98755.62
2019-03-06T23:39:23.729Z,98760.86
2019-03-06T23:41:55.895Z,98757.37
2019-03-06T23:44:26.507Z,98758.66
2019-03-06T23:46:57.100Z,98757.45
2019-03-06T23:49:27.571Z,98758.16
2019-03-06T23:52:07.423Z,98749.40
2019-03-06T23:54:39.657Z,98753.07
2019-03-06T23:57:10.772Z,98747.16
2019-03-06T23:59:42.213Z,98744.52
